KLM315 LFLL-LFKJ
Flight info
| Callsign | KLM315 |
|---|---|
| Flight time | 1h 0m |
| Altitude | 33000 |
| Route | ROMAM T43 EVALA A3 PERUS G374 XAMAL M623 VAREK |
| Aircraft | B738/M-SDE2E3FGHIRWXY/LB1 |
Departure
| Time | 2026-04-23 21:19 |
|---|---|
| Airport | Lyon Saint-Exupéry Airport (LFLL) |
Arrival
| Time | 2026-04-23 22:19 |
|---|---|
| Airport | Ajaccio Napoléon Bonaparte airport (LFKJ) |
| Time | Latitude | Longitude | Altitude | Speed | Heading |
|---|---|---|---|---|---|
| 2026-04-23 20:52 | 45.72188 | 5.08208 | 829 ft | 0 kts | 291° |
| 2026-04-23 21:14 | 45.72181 | 5.08234 | 829 ft | 5 kts | 287° |
| 2026-04-23 21:14 | 45.72181 | 5.08265 | 829 ft | 5 kts | 247° |
| 2026-04-23 21:14 | 45.72198 | 5.08293 | 829 ft | 3 kts | 208° |
| 2026-04-23 21:15 | 45.72208 | 5.08299 | 829 ft | 0 kts | 187° |
| 2026-04-23 21:15 | 45.72164 | 5.08300 | 829 ft | 14 kts | 179° |
| 2026-04-23 21:15 | 45.72065 | 5.08263 | 829 ft | 13 kts | 194° |
| 2026-04-23 21:16 | 45.71990 | 5.08278 | 829 ft | 13 kts | 146° |
| 2026-04-23 21:16 | 45.71936 | 5.08425 | 829 ft | 18 kts | 135° |
| 2026-04-23 21:16 | 45.71838 | 5.08470 | 829 ft | 12 kts | 174° |
| 2026-04-23 21:16 | 45.71769 | 5.08480 | 829 ft | 11 kts | 175° |
| 2026-04-23 21:17 | 45.71641 | 5.08495 | 829 ft | 22 kts | 175° |
| 2026-04-23 21:17 | 45.71505 | 5.08512 | 829 ft | 18 kts | 175° |
| 2026-04-23 21:17 | 45.71378 | 5.08528 | 829 ft | 21 kts | 175° |
| 2026-04-23 21:17 | 45.71220 | 5.08549 | 829 ft | 21 kts | 174° |
| 2026-04-23 21:18 | 45.71121 | 5.08656 | 829 ft | 21 kts | 107° |
| 2026-04-23 21:18 | 45.71080 | 5.08851 | 829 ft | 17 kts | 104° |
| 2026-04-23 21:18 | 45.71106 | 5.08982 | 829 ft | 14 kts | 42° |
| 2026-04-23 21:18 | 45.71219 | 5.09012 | 829 ft | 21 kts | 355° |
| 2026-04-23 21:19 | 45.71469 | 5.08980 | 829 ft | 69 kts | 355° |
| 2026-04-23 21:19 | 45.72232 | 5.08887 | 832 ft | 147 kts | 356° |
| 2026-04-23 21:19 | 45.73354 | 5.08760 | 1485 ft | 164 kts | 356° |
| 2026-04-23 21:19 | 45.74481 | 5.08631 | 2520 ft | 168 kts | 356° |
| 2026-04-23 21:20 | 45.75732 | 5.08496 | 3085 ft | 192 kts | 356° |
| 2026-04-23 21:20 | 45.77158 | 5.08354 | 3573 ft | 218 kts | 356° |
| 2026-04-23 21:20 | 45.78789 | 5.08207 | 3977 ft | 248 kts | 357° |
| 2026-04-23 21:20 | 45.80505 | 5.08028 | 5047 ft | 247 kts | 354° |
| 2026-04-23 21:21 | 45.82225 | 5.08039 | 6066 ft | 250 kts | 13° |
| 2026-04-23 21:21 | 45.83791 | 5.09119 | 7036 ft | 253 kts | 39° |
| 2026-04-23 21:21 | 45.84869 | 5.11094 | 7973 ft | 256 kts | 66° |
| 2026-04-23 21:21 | 45.85225 | 5.13565 | 8886 ft | 258 kts | 94° |
| 2026-04-23 21:22 | 45.84628 | 5.16008 | 9808 ft | 260 kts | 125° |
| 2026-04-23 21:22 | 45.83270 | 5.17624 | 10666 ft | 263 kts | 156° |
| 2026-04-23 21:22 | 45.81473 | 5.18256 | 11601 ft | 265 kts | 172° |
| 2026-04-23 21:22 | 45.79633 | 5.18569 | 12488 ft | 268 kts | 173° |
| 2026-04-23 21:23 | 45.77790 | 5.18897 | 13346 ft | 272 kts | 173° |
| 2026-04-23 21:23 | 45.75905 | 5.19308 | 14181 ft | 276 kts | 172° |
| 2026-04-23 21:23 | 45.73979 | 5.19748 | 15008 ft | 280 kts | 172° |
| 2026-04-23 21:23 | 45.72046 | 5.20146 | 15841 ft | 282 kts | 175° |
| 2026-04-23 21:24 | 45.70076 | 5.20229 | 16629 ft | 286 kts | 180° |
| 2026-04-23 21:24 | 45.68038 | 5.20126 | 17069 ft | 304 kts | 181° |
| 2026-04-23 21:24 | 45.65858 | 5.19965 | 17348 ft | 325 kts | 181° |
| 2026-04-23 21:24 | 45.63529 | 5.19796 | 17624 ft | 345 kts | 181° |
| 2026-04-23 21:25 | 45.61064 | 5.19622 | 17892 ft | 364 kts | 181° |
| 2026-04-23 21:25 | 45.58502 | 5.19445 | 18416 ft | 373 kts | 181° |
| 2026-04-23 21:25 | 45.55900 | 5.19268 | 19131 ft | 377 kts | 181° |
| 2026-04-23 21:25 | 45.53271 | 5.19092 | 19826 ft | 380 kts | 181° |
| 2026-04-23 21:26 | 45.50618 | 5.18915 | 20462 ft | 386 kts | 181° |
| 2026-04-23 21:26 | 45.47885 | 5.18735 | 21059 ft | 391 kts | 181° |
| 2026-04-23 21:26 | 45.45161 | 5.18557 | 21735 ft | 393 kts | 181° |
| 2026-04-23 21:26 | 45.42431 | 5.18378 | 22375 ft | 395 kts | 181° |
| 2026-04-23 21:27 | 45.39673 | 5.18196 | 22993 ft | 398 kts | 181° |
| 2026-04-23 21:27 | 45.36904 | 5.18015 | 23563 ft | 402 kts | 181° |
| 2026-04-23 21:27 | 45.34102 | 5.17832 | 24146 ft | 404 kts | 181° |
| 2026-04-23 21:27 | 45.31290 | 5.17650 | 24698 ft | 407 kts | 181° |
| 2026-04-23 21:28 | 45.28458 | 5.17467 | 25245 ft | 409 kts | 181° |
| 2026-04-23 21:28 | 45.25603 | 5.17283 | 25762 ft | 412 kts | 181° |
| 2026-04-23 21:28 | 45.22742 | 5.17099 | 26265 ft | 414 kts | 181° |
| 2026-04-23 21:28 | 45.19852 | 5.16913 | 26765 ft | 417 kts | 181° |
| 2026-04-23 21:29 | 45.16957 | 5.16727 | 27251 ft | 419 kts | 181° |
| 2026-04-23 21:29 | 45.14064 | 5.16542 | 27921 ft | 415 kts | 182° |
| 2026-04-23 21:29 | 45.11184 | 5.16368 | 28415 ft | 416 kts | 182° |
| 2026-04-23 21:29 | 45.08273 | 5.16465 | 28766 ft | 421 kts | 177° |
| 2026-04-23 21:30 | 45.05312 | 5.16811 | 29154 ft | 424 kts | 176° |
| 2026-04-23 21:30 | 45.02375 | 5.17185 | 29514 ft | 426 kts | 177° |
| 2026-04-23 21:30 | 44.99422 | 5.17541 | 30008 ft | 425 kts | 178° |
| 2026-04-23 21:30 | 44.96489 | 5.17884 | 30499 ft | 425 kts | 181° |
| 2026-04-23 21:31 | 44.93506 | 5.18229 | 30518 ft | 437 kts | 181° |
| 2026-04-23 21:31 | 44.90434 | 5.18573 | 30582 ft | 448 kts | 181° |
| 2026-04-23 21:31 | 44.84086 | 5.19274 | 30766 ft | 467 kts | 181° |
| 2026-04-23 21:32 | 44.80840 | 5.19632 | 31065 ft | 470 kts | 181° |
| 2026-04-23 21:32 | 44.77622 | 5.19985 | 31873 ft | 460 kts | 181° |
| 2026-04-23 21:32 | 44.74439 | 5.20334 | 32350 ft | 460 kts | 180° |
| 2026-04-23 21:32 | 44.71210 | 5.20688 | 32543 ft | 466 kts | 180° |
| 2026-04-23 21:33 | 44.67951 | 5.21045 | 32805 ft | 469 kts | 180° |
| 2026-04-23 21:33 | 44.64713 | 5.21399 | 33162 ft | 469 kts | 180° |
| 2026-04-23 21:33 | 44.58428 | 5.22082 | 33214 ft | 452 kts | 180° |
| 2026-04-23 21:34 | 44.52285 | 5.23007 | 33201 ft | 459 kts | 169° |
| 2026-04-23 21:34 | 44.49295 | 5.24692 | 33211 ft | 471 kts | 154° |
| 2026-04-23 21:34 | 44.46642 | 5.27437 | 33217 ft | 479 kts | 139° |
| 2026-04-23 21:35 | 44.44513 | 5.31106 | 33222 ft | 481 kts | 124° |
| 2026-04-23 21:35 | 44.43121 | 5.35343 | 33222 ft | 481 kts | 109° |
| 2026-04-23 21:35 | 44.41725 | 5.44403 | 33231 ft | 470 kts | 107° |
| 2026-04-23 21:36 | 44.40008 | 5.52962 | 33227 ft | 448 kts | 110° |
| 2026-04-23 21:36 | 44.39116 | 5.57098 | 33227 ft | 444 kts | 112° |
| 2026-04-23 21:37 | 44.37247 | 5.63454 | 33226 ft | 441 kts | 121° |
| 2026-04-23 21:37 | 44.34092 | 5.70739 | 33221 ft | 440 kts | 128° |
| 2026-04-23 21:38 | 44.31445 | 5.76357 | 33216 ft | 454 kts | 126° |
| 2026-04-23 21:38 | 44.27882 | 5.83906 | 33220 ft | 472 kts | 122° |
| 2026-04-23 21:39 | 44.24827 | 5.90338 | 33213 ft | 476 kts | 122° |
| 2026-04-23 21:39 | 44.21274 | 5.97793 | 33205 ft | 471 kts | 124° |
| 2026-04-23 21:40 | 44.17645 | 6.05389 | 33209 ft | 473 kts | 121° |
| 2026-04-23 21:40 | 44.14047 | 6.12849 | 33206 ft | 466 kts | 122° |
| 2026-04-23 21:40 | 44.12167 | 6.16553 | 33205 ft | 455 kts | 122° |
| 2026-04-23 21:41 | 44.10469 | 6.19891 | 33203 ft | 445 kts | 122° |
| 2026-04-23 21:41 | 44.06866 | 6.26977 | 33203 ft | 435 kts | 122° |
| 2026-04-23 21:42 | 44.03476 | 6.33714 | 33203 ft | 425 kts | 124° |
| 2026-04-23 21:42 | 44.00095 | 6.40406 | 33201 ft | 426 kts | 127° |
| 2026-04-23 21:43 | 43.96601 | 6.47267 | 33201 ft | 440 kts | 128° |
| 2026-04-23 21:43 | 43.92996 | 6.54313 | 33201 ft | 456 kts | 127° |
| 2026-04-23 21:44 | 43.89283 | 6.61544 | 33195 ft | 454 kts | 128° |
| 2026-04-23 21:44 | 43.85157 | 6.67919 | 33192 ft | 439 kts | 140° |
| 2026-04-23 21:45 | 43.80452 | 6.73374 | 33193 ft | 439 kts | 143° |
| 2026-04-23 21:45 | 43.75701 | 6.78683 | 33195 ft | 440 kts | 143° |
| 2026-04-23 21:46 | 43.70945 | 6.83996 | 33192 ft | 437 kts | 142° |
| 2026-04-23 21:46 | 43.66242 | 6.89230 | 33193 ft | 429 kts | 142° |
| 2026-04-23 21:47 | 43.61542 | 6.94421 | 33194 ft | 434 kts | 143° |
| 2026-04-23 21:47 | 43.57190 | 6.99208 | 33195 ft | 437 kts | 143° |
| 2026-04-23 21:48 | 43.52421 | 7.04442 | 33192 ft | 429 kts | 142° |
| 2026-04-23 21:48 | 43.47799 | 7.09983 | 33192 ft | 434 kts | 135° |
| 2026-04-23 21:49 | 43.43985 | 7.16361 | 33191 ft | 432 kts | 129° |
| 2026-04-23 21:49 | 43.40351 | 7.22881 | 33190 ft | 429 kts | 129° |
| 2026-04-23 21:50 | 43.36664 | 7.29441 | 33187 ft | 439 kts | 130° |
| 2026-04-23 21:50 | 43.32693 | 7.35873 | 33184 ft | 441 kts | 137° |
| 2026-04-23 21:51 | 43.28032 | 7.41276 | 33189 ft | 434 kts | 145° |
| 2026-04-23 21:51 | 43.23183 | 7.46197 | 33186 ft | 434 kts | 145° |
| 2026-04-23 21:52 | 43.18385 | 7.51074 | 33161 ft | 427 kts | 144° |
| 2026-04-23 21:52 | 43.16011 | 7.53490 | 32912 ft | 422 kts | 143° |
| 2026-04-23 21:52 | 43.13666 | 7.55870 | 32343 ft | 419 kts | 143° |
| 2026-04-23 21:52 | 43.11222 | 7.58034 | 31754 ft | 419 kts | 148° |
| 2026-04-23 21:53 | 43.08639 | 7.59838 | 31226 ft | 418 kts | 154° |
| 2026-04-23 21:53 | 43.05959 | 7.61340 | 30709 ft | 416 kts | 156° |
| 2026-04-23 21:53 | 43.03256 | 7.62709 | 30186 ft | 415 kts | 158° |
| 2026-04-23 21:53 | 43.01428 | 7.63616 | 29846 ft | 414 kts | 158° |
| 2026-04-23 21:54 | 42.97856 | 7.65386 | 29193 ft | 411 kts | 158° |
| 2026-04-23 21:54 | 42.96045 | 7.66282 | 28864 ft | 410 kts | 158° |
| 2026-04-23 21:54 | 42.93381 | 7.67601 | 28382 ft | 407 kts | 158° |
| 2026-04-23 21:54 | 42.90735 | 7.68910 | 27901 ft | 405 kts | 158° |
| 2026-04-23 21:55 | 42.87208 | 7.70653 | 27257 ft | 401 kts | 158° |
| 2026-04-23 21:55 | 42.85475 | 7.71508 | 26938 ft | 400 kts | 158° |
| 2026-04-23 21:55 | 42.82868 | 7.72795 | 26457 ft | 398 kts | 158° |
| 2026-04-23 21:55 | 42.80273 | 7.74074 | 25982 ft | 396 kts | 158° |
| 2026-04-23 21:56 | 42.77695 | 7.75348 | 25509 ft | 394 kts | 158° |
| 2026-04-23 21:56 | 42.75133 | 7.76620 | 25036 ft | 392 kts | 158° |
| 2026-04-23 21:56 | 42.72552 | 7.77898 | 24558 ft | 390 kts | 158° |
| 2026-04-23 21:56 | 42.70004 | 7.79157 | 24095 ft | 388 kts | 158° |
| 2026-04-23 21:57 | 42.67488 | 7.80397 | 23637 ft | 386 kts | 158° |
| 2026-04-23 21:57 | 42.64972 | 7.81636 | 23173 ft | 384 kts | 158° |
| 2026-04-23 21:57 | 42.62471 | 7.82866 | 22708 ft | 382 kts | 158° |
| 2026-04-23 21:57 | 42.59979 | 7.84098 | 22242 ft | 380 kts | 158° |
| 2026-04-23 21:58 | 42.57506 | 7.85317 | 21778 ft | 378 kts | 158° |
| 2026-04-23 21:58 | 42.55035 | 7.86531 | 21311 ft | 377 kts | 158° |
| 2026-04-23 21:58 | 42.52583 | 7.87732 | 20849 ft | 375 kts | 158° |
| 2026-04-23 21:58 | 42.50136 | 7.88929 | 20391 ft | 373 kts | 158° |
| 2026-04-23 21:59 | 42.47706 | 7.90116 | 19935 ft | 372 kts | 158° |
| 2026-04-23 21:59 | 42.45249 | 7.91314 | 19473 ft | 370 kts | 158° |
| 2026-04-23 21:59 | 42.42863 | 7.92476 | 19026 ft | 368 kts | 158° |
| 2026-04-23 22:00 | 42.38045 | 7.94820 | 18134 ft | 364 kts | 158° |
| 2026-04-23 22:00 | 42.35670 | 7.95975 | 17706 ft | 361 kts | 158° |
| 2026-04-23 22:00 | 42.33335 | 7.97150 | 17280 ft | 357 kts | 154° |
| 2026-04-23 22:00 | 42.31155 | 7.98690 | 16855 ft | 352 kts | 145° |
| 2026-04-23 22:01 | 42.29194 | 8.00608 | 16432 ft | 347 kts | 138° |
| 2026-04-23 22:01 | 42.27379 | 8.02725 | 16014 ft | 344 kts | 135° |
| 2026-04-23 22:01 | 42.25626 | 8.04903 | 15600 ft | 341 kts | 134° |
| 2026-04-23 22:01 | 42.23890 | 8.07065 | 15191 ft | 339 kts | 134° |
| 2026-04-23 22:02 | 42.22165 | 8.09201 | 14784 ft | 337 kts | 134° |
| 2026-04-23 22:02 | 42.20449 | 8.11316 | 14382 ft | 335 kts | 134° |
| 2026-04-23 22:02 | 42.18731 | 8.13432 | 13980 ft | 332 kts | 134° |
| 2026-04-23 22:02 | 42.17041 | 8.15532 | 13590 ft | 329 kts | 135° |
| 2026-04-23 22:03 | 42.15337 | 8.17636 | 13198 ft | 326 kts | 135° |
| 2026-04-23 22:03 | 42.13672 | 8.19681 | 12813 ft | 324 kts | 135° |
| 2026-04-23 22:03 | 42.12012 | 8.21711 | 12426 ft | 322 kts | 135° |
| 2026-04-23 22:03 | 42.10361 | 8.23726 | 12037 ft | 320 kts | 135° |
| 2026-04-23 22:04 | 42.08720 | 8.25723 | 11652 ft | 318 kts | 135° |
| 2026-04-23 22:04 | 42.07088 | 8.27707 | 11270 ft | 316 kts | 135° |
| 2026-04-23 22:04 | 42.05468 | 8.29673 | 11008 ft | 310 kts | 135° |
| 2026-04-23 22:04 | 42.03886 | 8.31590 | 10834 ft | 302 kts | 135° |
| 2026-04-23 22:05 | 42.02341 | 8.33462 | 10666 ft | 295 kts | 135° |
| 2026-04-23 22:05 | 42.00817 | 8.35306 | 10500 ft | 288 kts | 135° |
| 2026-04-23 22:05 | 41.99356 | 8.37074 | 10339 ft | 281 kts | 135° |
| 2026-04-23 22:05 | 41.97919 | 8.38811 | 10147 ft | 275 kts | 135° |
| 2026-04-23 22:06 | 41.96498 | 8.40523 | 9864 ft | 274 kts | 136° |
| 2026-04-23 22:06 | 41.95006 | 8.41722 | 9590 ft | 278 kts | 156° |
| 2026-04-23 22:06 | 41.93084 | 8.42186 | 9131 ft | 287 kts | 173° |
| 2026-04-23 22:06 | 41.91081 | 8.42219 | 8789 ft | 287 kts | 178° |
| 2026-04-23 22:07 | 41.89127 | 8.42116 | 8590 ft | 276 kts | 180° |
| 2026-04-23 22:07 | 41.87213 | 8.41968 | 8220 ft | 276 kts | 180° |
| 2026-04-23 22:07 | 41.85311 | 8.41820 | 7952 ft | 273 kts | 180° |
| 2026-04-23 22:07 | 41.83427 | 8.41676 | 7668 ft | 271 kts | 181° |
| 2026-04-23 22:08 | 41.81550 | 8.41533 | 7339 ft | 271 kts | 181° |
| 2026-04-23 22:08 | 41.79652 | 8.41389 | 6954 ft | 274 kts | 181° |
| 2026-04-23 22:08 | 41.77735 | 8.41245 | 6674 ft | 272 kts | 181° |
| 2026-04-23 22:08 | 41.75856 | 8.41104 | 6391 ft | 270 kts | 181° |
| 2026-04-23 22:09 | 41.73988 | 8.40964 | 6098 ft | 268 kts | 182° |
| 2026-04-23 22:09 | 41.72139 | 8.40825 | 5809 ft | 266 kts | 181° |
| 2026-04-23 22:09 | 41.70295 | 8.40688 | 5517 ft | 265 kts | 182° |
| 2026-04-23 22:09 | 41.68467 | 8.40551 | 5225 ft | 263 kts | 182° |
| 2026-04-23 22:10 | 41.66649 | 8.40470 | 4916 ft | 261 kts | 174° |
| 2026-04-23 22:10 | 41.64961 | 8.41191 | 4668 ft | 253 kts | 147° |
| 2026-04-23 22:10 | 41.63699 | 8.42763 | 4374 ft | 249 kts | 125° |
| 2026-04-23 22:10 | 41.62823 | 8.44752 | 4033 ft | 249 kts | 116° |
| 2026-04-23 22:11 | 41.62161 | 8.46875 | 3668 ft | 249 kts | 102° |
| 2026-04-23 22:11 | 41.62199 | 8.49153 | 3328 ft | 247 kts | 75° |
| 2026-04-23 22:11 | 41.62965 | 8.51217 | 3103 ft | 246 kts | 54° |
| 2026-04-23 22:11 | 41.64040 | 8.53009 | 3042 ft | 248 kts | 51° |
| 2026-04-23 22:12 | 41.65080 | 8.54834 | 3002 ft | 248 kts | 53° |
| 2026-04-23 22:12 | 41.66102 | 8.56683 | 3001 ft | 247 kts | 53° |
| 2026-04-23 22:12 | 41.67103 | 8.58544 | 3002 ft | 246 kts | 55° |
| 2026-04-23 22:12 | 41.68080 | 8.60411 | 3002 ft | 245 kts | 55° |
| 2026-04-23 22:13 | 41.69031 | 8.62231 | 2985 ft | 230 kts | 55° |
| 2026-04-23 22:13 | 41.69907 | 8.63909 | 2960 ft | 211 kts | 55° |
| 2026-04-23 22:13 | 41.70716 | 8.65460 | 2957 ft | 197 kts | 55° |
| 2026-04-23 22:13 | 41.71510 | 8.66892 | 2979 ft | 190 kts | 47° |
| 2026-04-23 22:14 | 41.72562 | 8.67907 | 2985 ft | 186 kts | 29° |
| 2026-04-23 22:14 | 41.73708 | 8.68667 | 2987 ft | 181 kts | 25° |
| 2026-04-23 22:14 | 41.74853 | 8.69361 | 2985 ft | 177 kts | 25° |
| 2026-04-23 22:14 | 41.75966 | 8.70042 | 2986 ft | 175 kts | 25° |
| 2026-04-23 22:15 | 41.77060 | 8.70717 | 2962 ft | 176 kts | 25° |
| 2026-04-23 22:15 | 41.78176 | 8.71407 | 2805 ft | 172 kts | 25° |
| 2026-04-23 22:15 | 41.79256 | 8.72076 | 2569 ft | 169 kts | 25° |
| 2026-04-23 22:15 | 41.80308 | 8.72728 | 2335 ft | 164 kts | 25° |
| 2026-04-23 22:16 | 41.81327 | 8.73361 | 2125 ft | 158 kts | 25° |
| 2026-04-23 22:16 | 41.82306 | 8.73969 | 1915 ft | 152 kts | 25° |
| 2026-04-23 22:16 | 41.83236 | 8.74547 | 1736 ft | 145 kts | 25° |
| 2026-04-23 22:16 | 41.84126 | 8.75100 | 1562 ft | 138 kts | 26° |
| 2026-04-23 22:17 | 41.84982 | 8.75632 | 1358 ft | 135 kts | 26° |
| 2026-04-23 22:17 | 41.85830 | 8.76160 | 1179 ft | 135 kts | 26° |
| 2026-04-23 22:17 | 41.86678 | 8.76687 | 1001 ft | 134 kts | 27° |
| 2026-04-23 22:17 | 41.87530 | 8.77217 | 819 ft | 132 kts | 26° |
| 2026-04-23 22:18 | 41.88361 | 8.77734 | 643 ft | 132 kts | 26° |
| 2026-04-23 22:18 | 41.89197 | 8.78254 | 468 ft | 132 kts | 26° |
| 2026-04-23 22:18 | 41.90029 | 8.78773 | 290 ft | 132 kts | 26° |
| 2026-04-23 22:18 | 41.90854 | 8.79287 | 127 ft | 130 kts | 26° |
| 2026-04-23 22:19 | 41.91672 | 8.79786 | 27 ft | 126 kts | 25° |
| 2026-04-23 22:19 | 41.92278 | 8.80166 | 26 ft | 57 kts | 24° |
| 2026-04-23 22:19 | 41.92614 | 8.80370 | 26 ft | 42 kts | 25° |
| 2026-04-23 22:19 | 41.92760 | 8.80427 | 26 ft | 7 kts | 314° |
| 2026-04-23 22:20 | 41.92795 | 8.80346 | 26 ft | 14 kts | 295° |
| 2026-04-23 22:20 | 41.92812 | 8.80211 | 26 ft | 14 kts | 239° |
| 2026-04-23 22:20 | 41.92725 | 8.80122 | 26 ft | 19 kts | 205° |
| 2026-04-23 22:20 | 41.92588 | 8.80036 | 26 ft | 23 kts | 205° |
| 2026-04-23 22:21 | 41.92460 | 8.79956 | 26 ft | 18 kts | 205° |
| 2026-04-23 22:21 | 41.92357 | 8.79892 | 26 ft | 17 kts | 205° |
| 2026-04-23 22:21 | 41.92225 | 8.79810 | 26 ft | 24 kts | 205° |
| 2026-04-23 22:21 | 41.92103 | 8.79735 | 26 ft | 13 kts | 204° |
| 2026-04-23 22:22 | 41.92035 | 8.79693 | 26 ft | 9 kts | 202° |
| 2026-04-23 22:22 | 41.91990 | 8.79644 | 26 ft | 8 kts | 265° |
| 2026-04-23 22:22 | 41.92007 | 8.79612 | 26 ft | 3 kts | 343° |
| 2026-04-23 22:22 | 41.92024 | 8.79606 | 26 ft | 0 kts | 343° |